Solitude, Indiana
Current Conditions -  °F | °C
As of 8:55 PM on Monday 20 Oct 2014 (Local Time) from KCUL Reporting Station
Clear Clear  
Wind Chill: 56°   Ceiling: Unl
Heat Index: 56°   Visibility: 10mi
Dew Point: 47°   Wind: 7mph
Humidity: 71%   Direction: 310°NW
Pressure: 29.97"   Gusts: NA
Location:  37.9469°N, 87.9016°W
Report Text: KCUL 210155Z AUTO 31006KT 10SM CLR 14/08 A2997 RMK AO2 T01350083
Loading
Personal Weather Stations






























Interactive Weather Map
Tropical Storm Tracking
New forecast layout! Learn more

10-Day Weather Forecast

Advertisements
Track Severe Weather on mobile